Stockbridge, Georgia
Current Conditions -  °F | °C
As of 10:52 AM on Sunday 21 Dec 2014 (Local Time) from KATL Reporting Station
Haze Haze  
Wind Chill:   Ceiling: 700
Heat Index:   Visibility: 2.5mi
Dew Point:   Wind: 8mph
Humidity: 86%   Direction: 80°E
Pressure: 30.2"   Gusts: NA
Location:  33.54°N, 84.23°W
Report Text: KATL 211552Z 08007KT 2 1/2SM BR OVC007 09/07 A3020 RMK AO2 SFC VIS 5 SLP231 T00890067
Loading
Personal Weather Stations






























Interactive Weather Map New forecast layout! Learn more

10-Day Weather Forecast

Advertisements
Track Severe Weather on mobile